VTCLVTCC

Guest
Details From VTCL - Lampang
To VTCC - Chiang Mai Intl
Flight Number -
Tags generated
Created
Modified
Stats Distance 43 nm / 79 km
Max Altitude 100 ft / 30 m
Waypoints 3
Social Downloads 1
Likes 0
Share VATSIM

Download

Looking for another format? Having issues loading an existing format? Contact us
Advertisement - Login to hide

Notes

Basic altitude profile: - Ascent Rate: 2500ft/min - Ascent Speed: 250kts - Cruise Altitude: 35000ft - Cruise Speed: 420kts - Descent Rate: 1500ft/min - Descent Speed: 250kts Options: - Use NATs: yes - Use PACOTS: yes - Use low airways: yes - Use high airways: yes

Route

VTCL LPN VTCC

ID Type Via Altitude Latitude Longitude Leg Dist Tot Dist Heading (true) Name
O VTCL APT - 0 ft / 0 m 18.27092˚ 99.50425˚ - 0 nm - Lampang
LPN VOR - 100 ft / 30 m 18.27688˚ 99.50240˚ 0 nm 0 nm 344° / 344° LAMPANG VOR-DME
O VTCC APT - 0 ft / 0 m 18.76685˚ 98.96264˚ 42 nm 42 nm 314° / 314° Chiang Mai Intl

Altitude Profile

Advertisement - Login to hide

VTCL

Details ICAO VTCL (LPT)
Name Lampang
Region Thailand
Timezone Asia/Bangkok (UTC+7.0)
Stats Elevation 811 ft / 247 m (AMSL)
Location 18.270916° 99.504250°
Runways 1
Magnetic Variation 0.745° W

METAR

Not found

TAF

TAF VTCL 122300Z 1300/1324 18005KT 9999 FEW030

Decode

Departure Runways

ID Width Length Bearing (true) Bearing (mag) Surface Threshold Offset Overrun Length
18 95 ft / 29 m 6,496 ft / 1,980 m 175.46° 176.21° Asphalt 660 ft / 201 m 0 ft / 0 m
36 95 ft / 29 m 6,496 ft / 1,980 m 355.46° 356.21° Asphalt 330 ft / 101 m 0 ft / 0 m

VTCC

Details ICAO VTCC (CNX)
Name Chiang Mai Intl
Region Thailand
Timezone Asia/Bangkok (UTC+7.0)
Stats Elevation 1,036 ft / 316 m (AMSL)
Location 18.766845° 98.962643°
Runways 1
Magnetic Variation 0.738° W

METAR

VTCC 130530Z 31003KT 9999 FEW035 29/17 Q1014 NOSIG

Decode

TAF

TAF VTCC 122300Z 1300/1406 18005KT 9999 SCT030

Decode

Destination Runways

ID Width Length Bearing (true) Bearing (mag) Surface Threshold Offset Overrun Length
18 148 ft / 45 m 10,237 ft / 3,120 m 180.22° 180.96° Asphalt 0 ft / 0 m 974 ft / 297 m
36 148 ft / 45 m 10,237 ft / 3,120 m 0.22° 0.96° Asphalt 0 ft / 0 m 341 ft / 104 m

Approach Navaids

Runway Type Ident Frequency Range Bearing (true) Bearing (mag) Slope Elevation
36 Localiser ICMA 109.90 MHz 18 nm / 33 km 359.49° 0.23° - 1,035 ft / 315 m (AMSL)
36 Glidescope ICMA 109.90 MHz 10 nm / 19 km 0.22° 0.96° 3.00° 1,005 ft / 306 m (AMSL)
36 DME ICMA 109.90 MHz 18 nm / 33 km - - - 1,035 ft / 315 m (AMSL)